createdAt,value
2023-10-31T00:00:07.216Z,6.1
2023-10-31T00:05:44.842Z,5.9
2023-10-31T00:11:35.993Z,5.8
2023-10-31T00:17:38.869Z,5.7
2023-10-31T00:23:31.099Z,5.7
2023-10-31T00:29:22.625Z,5.6
2023-10-31T00:35:14.940Z,5.7
2023-10-31T00:41:07.497Z,5.8
2023-10-31T00:46:44.564Z,5.9
2023-10-31T00:52:21.154Z,5.9
2023-10-31T00:57:57.661Z,5.9
2023-10-31T01:03:33.997Z,5.8
2023-10-31T01:09:25.692Z,5.9
2023-10-31T01:15:02.845Z,5.9
2023-10-31T01:20:54.438Z,5.9
2023-10-31T01:26:31.351Z,5.9
2023-10-31T01:32:40.023Z,6
2023-10-31T01:38:16.979Z,5.9
2023-10-31T01:44:08.422Z,5.8
2023-10-31T01:50:00.635Z,5.5
2023-10-31T01:55:52.767Z,5.4
2023-10-31T02:01:28.427Z,5.2
2023-10-31T02:07:21.388Z,5.2
2023-10-31T02:13:12.750Z,5.1
2023-10-31T02:19:03.497Z,5
2023-10-31T02:24:56.204Z,4.9
2023-10-31T02:30:47.971Z,4.9
2023-10-31T02:36:40.429Z,4.8
2023-10-31T02:42:32.571Z,4.6
2023-10-31T02:48:08.824Z,4.5
2023-10-31T02:53:59.824Z,4.4
2023-10-31T02:59:52.125Z,4.3
2023-10-31T03:05:44.115Z,4.1
2023-10-31T03:11:35.303Z,4.1
2023-10-31T03:17:12.632Z,4
2023-10-31T03:23:04.598Z,3.9
2023-10-31T03:28:55.133Z,3.9
2023-10-31T03:34:48.590Z,3.8
2023-10-31T03:40:40.399Z,3.8
2023-10-31T03:46:31.449Z,3.7
2023-10-31T03:52:08.525Z,3.6
2023-10-31T03:57:44.046Z,3.6
2023-10-31T04:03:20.460Z,3.7
2023-10-31T04:08:57.727Z,3.8
2023-10-31T04:14:33.265Z,3.8
2023-10-31T04:20:10.340Z,3.8
2023-10-31T04:26:02.680Z,3.8
2023-10-31T04:32:12.518Z,3.8
2023-10-31T04:38:06.851Z,3.8
2023-10-31T04:43:59.344Z,3.8
2023-10-31T04:49:36.704Z,3.8
2023-10-31T04:55:14.875Z,3.8
2023-10-31T05:00:53.180Z,3.8
2023-10-31T05:06:43.359Z,3.8
2023-10-31T05:12:23.042Z,3.9
2023-10-31T05:18:00.550Z,3.9
2023-10-31T05:23:38.109Z,4.1
2023-10-31T05:29:31.202Z,4.3
2023-10-31T05:35:08.797Z,4.5
2023-10-31T05:41:00.480Z,5.6
2023-10-31T05:46:38.209Z,7.4
2023-10-31T05:52:30.712Z,9.8
2023-10-31T05:58:22.311Z,12.2
2023-10-31T06:04:14.707Z,14.8
2023-10-31T06:10:08.382Z,17.7
2023-10-31T06:16:01.355Z,20.7
2023-10-31T06:21:53.467Z,23.9
2023-10-31T06:27:47.211Z,27.4
2023-10-31T06:34:37.387Z,31.3
2023-10-31T06:40:13.925Z,34.3
2023-10-31T06:46:10.097Z,37.4
2023-10-31T06:52:04.739Z,40.4
2023-10-31T06:57:40.789Z,43.6
2023-10-31T07:03:18.341Z,46.6
2023-10-31T07:08:57.044Z,50.1
2023-10-31T07:14:48.741Z,43.2
2023-10-31T07:20:41.733Z,43.3
2023-10-31T07:26:32.827Z,50
2023-10-31T07:32:10.788Z,49.7
2023-10-31T07:38:04.672Z,45
2023-10-31T07:43:41.106Z,45.3
2023-10-31T07:49:02.971Z,46.7
2023-10-31T07:54:56.052Z,47.8
2023-10-31T08:00:50.878Z,49.8
2023-10-31T08:06:43.606Z,50.9
2023-10-31T08:12:36.393Z,52.1
2023-10-31T08:18:28.697Z,52.9
2023-10-31T08:24:19.921Z,54.3
2023-10-31T08:30:12.554Z,55.3
2023-10-31T08:36:04.184Z,55.9
2023-10-31T08:42:06.531Z,56.6
2023-10-31T08:48:01.337Z,57.3
2023-10-31T08:59:27.813Z,58.6
2023-10-31T09:05:21.425Z,59.5
2023-10-31T09:11:12.516Z,59.4
2023-10-31T09:17:03.674Z,59.6
2023-10-31T09:22:56.901Z,59.8
2023-10-31T09:28:32.782Z,60.3
2023-10-31T09:34:17.604Z,60.8
2023-10-31T09:39:41.011Z,61.3
2023-10-31T09:45:20.392Z,61.6
2023-10-31T09:50:56.595Z,62.3
2023-10-31T09:56:33.946Z,62.6
2023-10-31T10:02:13.582Z,62.5
2023-10-31T10:07:51.915Z,60.8
2023-10-31T10:13:29.032Z,59.5
2023-10-31T10:19:21.257Z,56.2
2023-10-31T10:24:58.573Z,52.9
2023-10-31T10:30:43.914Z,55.1
2023-10-31T10:36:05.923Z,59.1
2023-10-31T10:41:26.789Z,55.6
2023-10-31T10:46:50.034Z,50.6
2023-10-31T10:51:56.077Z,54.5
2023-10-31T10:57:32.732Z,56
2023-10-31T11:02:55.128Z,57.9
2023-10-31T11:08:17.625Z,51.3
2023-10-31T11:13:22.852Z,47.3
2023-10-31T11:18:45.036Z,45.6
2023-10-31T11:24:05.118Z,44.8
2023-10-31T11:29:35.420Z,43.1
2023-10-31T11:35:12.822Z,41.9
2023-10-31T11:40:33.015Z,40.9
2023-10-31T11:46:10.010Z,40.2
2023-10-31T11:51:53.020Z,40.3
2023-10-31T11:57:13.432Z,40.1
2023-10-31T12:03:04.880Z,39.1
2023-10-31T12:08:58.693Z,38.3
2023-10-31T12:14:38.292Z,37.4
2023-10-31T12:20:15.285Z,37.9
2023-10-31T12:26:08.781Z,41.2
2023-10-31T12:31:46.295Z,46.9
2023-10-31T12:37:22.753Z,50.3
2023-10-31T12:43:00.301Z,50.4
2023-10-31T12:48:36.043Z,47.8
2023-10-31T12:54:12.412Z,45.7
2023-10-31T12:59:35.602Z,44
2023-10-31T13:05:15.753Z,42.2
2023-10-31T13:10:51.942Z,40.6
2023-10-31T13:16:29.358Z,39.2
2023-10-31T13:21:50.128Z,37.9
2023-10-31T13:26:56.377Z,37.6
2023-10-31T13:32:19.211Z,39.1
2023-10-31T13:37:41.008Z,41.3
2023-10-31T13:43:02.624Z,43.1
2023-10-31T13:48:40.090Z,43.4
2023-10-31T13:54:16.889Z,42.9
2023-10-31T13:59:53.672Z,42.1
2023-10-31T14:05:50.090Z,40.8
2023-10-31T14:11:28.542Z,39.1
2023-10-31T14:17:07.273Z,37.5
2023-10-31T14:22:43.937Z,35.9
2023-10-31T14:28:26.554Z,34.3
2023-10-31T14:33:49.178Z,32.8
2023-10-31T14:39:10.864Z,31.5
2023-10-31T14:44:32.979Z,30.3
2023-10-31T14:50:09.530Z,28.9
2023-10-31T14:55:46.690Z,27.9
2023-10-31T15:01:08.228Z,26.8
2023-10-31T15:06:45.462Z,26
2023-10-31T15:12:12.191Z,25.1
2023-10-31T15:17:48.626Z,24.4
2023-10-31T15:23:41.405Z,23.7
2023-10-31T15:29:17.625Z,23.1
2023-10-31T15:34:56.092Z,22.5
2023-10-31T15:40:17.298Z,22.2
2023-10-31T15:46:18.748Z,21.8
2023-10-31T15:51:39.600Z,21.4
2023-10-31T15:57:16.789Z,21
2023-10-31T16:02:41.231Z,20.6
2023-10-31T16:08:03.251Z,20.3
2023-10-31T16:13:41.874Z,19.9
2023-10-31T16:19:19.585Z,19.5
2023-10-31T16:25:11.949Z,19.3
2023-10-31T16:30:48.885Z,18.9
2023-10-31T16:41:35.921Z,18.4
2023-10-31T16:47:27.717Z,18.2
2023-10-31T16:53:05.206Z,18
2023-10-31T16:58:10.487Z,17.9
2023-10-31T17:03:34.221Z,17.7
2023-10-31T17:09:11.742Z,17.5
2023-10-31T17:15:04.230Z,17.4
2023-10-31T17:20:57.043Z,17.2
2023-10-31T17:26:39.759Z,17.1
2023-10-31T17:32:47.557Z,16.9
2023-10-31T17:38:39.888Z,16.8
2023-10-31T17:44:17.361Z,16.6
2023-10-31T17:50:10.385Z,16.4
2023-10-31T17:55:34.318Z,16.3
2023-10-31T18:01:12.153Z,16.2
2023-10-31T18:06:34.269Z,16.1
2023-10-31T18:12:10.801Z,15.9
2023-10-31T18:17:51.492Z,15.8
2023-10-31T18:23:30.121Z,15.7
2023-10-31T18:29:22.196Z,15.5
2023-10-31T18:35:16.095Z,15.4
2023-10-31T18:41:19.915Z,15.3
2023-10-31T18:48:04.429Z,15.2
2023-10-31T18:53:57.896Z,15.1
2023-10-31T18:59:37.119Z,15
2023-10-31T19:05:15.248Z,15
2023-10-31T19:10:37.559Z,14.9
2023-10-31T19:16:00.110Z,14.9
2023-10-31T19:21:54.135Z,14.8
2023-10-31T19:27:33.257Z,14.8
2023-10-31T19:33:11.376Z,14.8
2023-10-31T19:39:04.600Z,14.8
2023-10-31T19:44:58.264Z,14.8
2023-10-31T19:50:52.624Z,14.8
2023-10-31T19:56:47.736Z,14.8
2023-10-31T20:02:44.454Z,14.8
2023-10-31T20:08:40.440Z,14.9
2023-10-31T20:14:17.809Z,15
2023-10-31T20:20:23.145Z,15.1
2023-10-31T20:25:44.810Z,15.2
2023-10-31T20:31:22.247Z,15.2
2023-10-31T20:36:59.741Z,15.2
2023-10-31T20:42:36.540Z,15.1
2023-10-31T20:48:15.394Z,15.2
2023-10-31T20:54:08.426Z,15.3
2023-10-31T20:59:45.336Z,15.3
2023-10-31T21:05:09.565Z,15.3
2023-10-31T21:10:46.612Z,15.3
2023-10-31T21:16:24.150Z,15.3
2023-10-31T21:22:10.289Z,15.2
2023-10-31T21:27:47.216Z,15.1
2023-10-31T21:33:24.591Z,15.1
2023-10-31T21:39:19.110Z,15.1
2023-10-31T21:44:55.315Z,15.2
2023-10-31T21:50:47.407Z,15.2
2023-10-31T21:56:38.655Z,15.2
2023-10-31T22:02:33.286Z,15.3
2023-10-31T22:08:26.776Z,15.5
2023-10-31T22:14:04.233Z,15.6
2023-10-31T22:19:56.716Z,15.8
2023-10-31T22:25:48.499Z,15.9
2023-10-31T22:31:41.082Z,16
2023-10-31T22:37:17.587Z,16.1
2023-10-31T22:43:09.272Z,16.3
2023-10-31T22:48:30.677Z,16.3
2023-10-31T22:54:07.696Z,16.3
2023-10-31T22:59:44.890Z,16.3
2023-10-31T23:05:37.326Z,16.3
2023-10-31T23:11:35.510Z,16.3
2023-10-31T23:17:10.965Z,16
2023-10-31T23:23:02.910Z,15.7
2023-10-31T23:28:39.595Z,15.4
2023-10-31T23:34:41.380Z,15.1
2023-10-31T23:40:32.314Z,14.7
2023-10-31T23:46:09.311Z,14.4
2023-10-31T23:51:29.931Z,14.1
2023-10-31T23:57:21.839Z,13.9
